Time;durP1;ratioP1;P1;durP2;ratioP2;P2;SDS_P1;SDS_P2;PMS_P1;PMS_P2;Temp;Humidity;BMP_temperature;BMP_pressure;BME280_temperature;BME280_humidity;BME280_pressure;Samples;Min_cycle;Max_cycle;Signal;HPM_P1;HPM_P2
2022/11/21 00:00:52;;;;;;;28.52;14.25;;;1.10;99.90;;;;;;5007766;28;20034;-63
2022/11/21 00:03:18;;;;;;;27.38;14.00;;;1.10;99.90;;;;;;5008918;28;20038;-63
2022/11/21 00:05:46;;;;;;;28.08;14.35;;;1.10;99.90;;;;;;5011262;28;20420;-63
2022/11/21 00:08:14;;;;;;;29.77;14.93;;;1.00;99.90;;;;;;5003690;28;20052;-63
2022/11/21 00:10:40;;;;;;;25.02;13.65;;;1.00;99.90;;;;;;5009414;28;20445;-63
2022/11/21 00:13:07;;;;;;;27.50;15.10;;;1.00;99.90;;;;;;5008125;28;20089;-64
2022/11/21 00:15:34;;;;;;;27.27;14.75;;;1.00;99.90;;;;;;5010711;28;20050;-62
2022/11/21 00:18:02;;;;;;;29.45;14.82;;;0.90;99.90;;;;;;5008941;28;20046;-62
2022/11/21 00:20:28;;;;;;;29.13;14.90;;;0.90;99.90;;;;;;5007728;28;20385;-62
2022/11/21 00:22:54;;;;;;;26.02;14.82;;;0.90;99.90;;;;;;5008602;28;20038;-62
2022/11/21 00:25:19;;;;;;;29.83;14.77;;;0.90;99.90;;;;;;5006347;28;20038;-62
2022/11/21 00:27:45;;;;;;;25.23;14.30;;;0.90;99.90;;;;;;5008795;28;20040;-62
2022/11/21 00:30:11;;;;;;;33.40;16.27;;;0.90;99.90;;;;;;5005910;28;20076;-62
2022/11/21 00:32:37;;;;;;;27.88;14.80;;;0.80;99.90;;;;;;5006127;28;20046;-62
2022/11/21 00:35:03;;;;;;;28.38;14.57;;;0.90;99.90;;;;;;5007008;28;20057;-62
2022/11/21 00:37:31;;;;;;;28.17;14.88;;;0.80;99.90;;;;;;5009236;28;20038;-62
2022/11/21 00:39:56;;;;;;;24.50;14.20;;;0.80;99.90;;;;;;4990410;28;20104;-62
2022/11/21 00:42:22;;;;;;;29.30;16.00;;;0.80;99.90;;;;;;5008762;28;20042;-62
2022/11/21 00:44:47;;;;;;;27.60;14.80;;;0.80;99.90;;;;;;5012316;28;20050;-62
2022/11/21 00:47:13;;;;;;;29.83;15.70;;;0.80;99.90;;;;;;5011772;28;20465;-63
2022/11/21 00:49:38;;;;;;;29.15;15.65;;;0.80;99.90;;;;;;5008813;28;20053;-62
2022/11/21 00:52:04;;;;;;;30.75;15.38;;;0.80;99.90;;;;;;5012407;28;20037;-62
2022/11/21 00:54:29;;;;;;;29.83;15.38;;;0.70;99.90;;;;;;5012992;28;20030;-62
2022/11/21 00:56:55;;;;;;;29.65;15.20;;;0.70;99.90;;;;;;5009507;28;20049;-64
2022/11/21 00:59:20;;;;;;;29.42;14.43;;;0.70;99.90;;;;;;5001297;28;20049;-63
2022/11/21 01:01:46;;;;;;;29.42;14.48;;;0.70;99.90;;;;;;5004787;28;20048;-62
2022/11/21 01:04:12;;;;;;;24.02;13.43;;;0.70;99.90;;;;;;5012007;28;20073;-62
2022/11/21 01:06:37;;;;;;;28.98;13.52;;;0.60;99.90;;;;;;5011805;28;20048;-62
2022/11/21 01:09:03;;;;;;;32.33;15.18;;;0.70;99.90;;;;;;4989756;28;20054;-62
2022/11/21 01:11:30;;;;;;;31.88;15.00;;;0.60;99.90;;;;;;5007060;28;20038;-62
2022/11/21 01:13:55;;;;;;;31.05;15.18;;;0.60;99.90;;;;;;5003700;28;20124;-63
2022/11/21 01:16:24;;;;;;;29.40;15.25;;;0.60;99.90;;;;;;5018097;28;20121;-63
2022/11/21 01:18:50;;;;;;;29.75;15.30;;;0.60;99.90;;;;;;5004125;28;20124;-62
2022/11/21 01:21:19;;;;;;;31.42;15.23;;;0.60;99.90;;;;;;5011053;28;20081;-62
2022/11/21 01:23:45;;;;;;;27.70;14.68;;;0.60;99.90;;;;;;5012716;28;20041;-62
2022/11/21 01:26:14;;;;;;;28.98;15.57;;;0.50;99.90;;;;;;5010863;28;20034;-62
2022/11/21 01:28:40;;;;;;;32.13;15.60;;;0.50;99.90;;;;;;5002053;28;20447;-63
2022/11/21 01:31:07;;;;;;;30.40;15.52;;;0.50;99.90;;;;;;5001926;28;20132;-63
2022/11/21 01:33:33;;;;;;;31.25;14.25;;;0.50;99.90;;;;;;5007981;28;20120;-62
2022/11/21 01:36:10;;;;;;;27.15;14.55;;;0.40;99.90;;;;;;5011863;28;20148;-62
2022/11/21 01:38:37;;;;;;;25.30;14.18;;;0.30;99.90;;;;;;5009789;28;20041;-61
2022/11/21 01:41:02;;;;;;;28.20;15.10;;;0.30;99.90;;;;;;4995440;28;20565;-62
2022/11/21 01:43:28;;;;;;;27.25;14.57;;;0.20;99.90;;;;;;5021241;28;20054;-63
2022/11/21 01:46:16;;;;;;;27.50;14.35;;;0.00;99.90;;;;;;5010203;28;20037;-62
2022/11/21 01:48:56;;;;;;;29.88;14.55;;;0.00;99.90;;;;;;5001497;28;20045;-62
2022/11/21 01:51:26;;;;;;;;;;;-0.20;99.90;;;;;;4998620;28;20053;-62
2022/11/21 01:54:06;;;;;;;28.48;14.95;;;-0.20;99.90;;;;;;5007406;28;19918;-62
2022/11/21 01:56:39;;;;;;;29.20;15.13;;;-0.30;99.90;;;;;;5006268;28;20475;-61
2022/11/21 01:59:07;;;;;;;30.55;15.32;;;-0.40;99.90;;;;;;5005642;28;20045;-62
2022/11/21 02:01:34;;;;;;;29.38;14.85;;;-0.40;99.90;;;;;;5003699;28;20497;-62
2022/11/21 02:04:01;;;;;;;29.65;15.63;;;-0.50;99.90;;;;;;5004689;28;20552;-62
2022/11/21 02:06:28;;;;;;;27.20;14.18;;;-0.60;99.90;;;;;;5006872;28;20121;-62
2022/11/21 02:08:54;;;;;;;29.67;15.13;;;-0.60;99.90;;;;;;5008482;28;20054;-62
2022/11/21 02:11:31;;;;;;;36.10;15.63;;;-0.70;99.90;;;;;;5009879;28;20043;-62
2022/11/21 02:13:58;;;;;;;35.35;15.10;;;-0.70;99.90;;;;;;5011151;28;20430;-61
2022/11/21 02:16:24;;;;;;;30.75;14.65;;;-0.70;99.90;;;;;;5012500;28;20046;-62
2022/11/21 02:18:51;;;;;;;26.95;14.15;;;-0.80;99.90;;;;;;4999879;28;20065;-62
2022/11/21 02:21:31;;;;;;;29.52;14.27;;;-0.80;99.90;;;;;;5009769;28;20389;-63
2022/11/21 02:24:11;;;;;;;29.52;14.63;;;-0.90;99.90;;;;;;5004089;28;20043;-62
2022/11/21 02:26:37;;;;;;;28.00;15.20;;;-0.90;99.90;;;;;;4995503;28;20084;-62
2022/11/21 02:29:03;;;;;;;28.27;14.90;;;-0.90;99.90;;;;;;5003323;28;20045;-62
2022/11/21 02:31:28;;;;;;;30.85;14.80;;;-1.00;99.90;;;;;;4990164;28;20478;-62
2022/11/21 02:33:54;;;;;;;29.02;14.95;;;-1.00;99.90;;;;;;5003788;28;20048;-62
2022/11/21 02:36:46;;;;;;;29.02;15.45;;;-1.00;99.90;;;;;;5007762;28;20120;-63
2022/11/21 02:39:38;;;;;;;26.67;13.68;;;-1.00;99.90;;;;;;5004757;28;20045;-62
2022/11/21 02:42:25;;;;;;;28.73;13.70;;;-1.10;99.90;;;;;;5003627;28;20046;-63
2022/11/21 02:45:33;;;;;;;27.88;14.05;;;-1.20;99.90;;;;;;5011856;28;20058;-63
2022/11/21 02:47:59;;;;;;;32.85;14.18;;;-1.20;99.90;;;;;;4985088;28;20038;-62
2022/11/21 02:50:33;;;;;;;29.33;14.70;;;-1.30;99.90;;;;;;4981673;28;20049;-62
2022/11/21 02:52:59;;;;;;;28.38;13.15;;;-1.30;99.90;;;;;;4988656;28;20089;-62
2022/11/21 02:55:25;;;;;;;30.00;14.85;;;-1.40;99.90;;;;;;4992616;28;20115;-62
2022/11/21 02:57:51;;;;;;;27.20;13.35;;;-1.30;99.90;;;;;;5004494;28;20045;-63
2022/11/21 03:00:17;;;;;;;33.25;15.70;;;-1.40;99.90;;;;;;4998762;28;20074;-62
2022/11/21 03:02:43;;;;;;;32.50;16.08;;;-1.30;99.90;;;;;;5006396;28;20048;-62
2022/11/21 03:05:11;;;;;;;32.63;15.32;;;-1.40;99.90;;;;;;5009504;28;20046;-62
2022/11/21 03:07:37;;;;;;;37.58;15.23;;;-1.40;99.90;;;;;;5007522;28;20059;-62
2022/11/21 03:10:03;;;;;;;36.17;16.83;;;-1.30;99.90;;;;;;5001875;28;20043;-61
2022/11/21 03:12:28;;;;;;;31.30;15.63;;;-1.30;99.90;;;;;;5003336;28;20535;-62
2022/11/21 03:14:54;;;;;;;32.25;15.35;;;-1.30;99.90;;;;;;5005403;28;20049;-62
2022/11/21 03:17:20;;;;;;;37.08;16.92;;;-1.30;99.90;;;;;;4998788;28;20052;-62
2022/11/21 03:19:45;;;;;;;32.50;16.02;;;-1.20;99.90;;;;;;5009241;28;20041;-62
2022/11/21 03:22:12;;;;;;;33.65;16.17;;;-1.30;99.90;;;;;;4994428;28;20062;-62
2022/11/21 03:24:38;;;;;;;31.35;15.45;;;-1.20;99.90;;;;;;5005217;28;20034;-62
2022/11/21 03:27:03;;;;;;;34.28;16.10;;;-1.30;99.90;;;;;;5003691;28;20108;-62
2022/11/21 03:29:29;;;;;;;34.70;15.55;;;-1.30;99.90;;;;;;5006766;28;20045;-63
2022/11/21 03:31:54;;;;;;;33.08;17.05;;;-1.30;99.90;;;;;;5005208;28;20502;-62
2022/11/21 03:34:20;;;;;;;29.55;14.57;;;-1.30;99.90;;;;;;4998637;28;20092;-62
2022/11/21 03:36:46;;;;;;;25.63;13.95;;;-1.30;99.90;;;;;;5002216;28;20072;-62
2022/11/21 03:39:11;;;;;;;27.95;13.95;;;-1.40;99.90;;;;;;5010079;28;20057;-62
2022/11/21 03:41:37;;;;;;;35.65;15.65;;;-1.40;99.90;;;;;;5006811;28;20040;-62
2022/11/21 03:44:05;;;;;;;32.75;15.57;;;-1.50;99.90;;;;;;5001580;28;20054;-62
2022/11/21 03:46:33;;;;;;;30.95;14.95;;;-1.50;99.90;;;;;;5004785;28;20082;-62
2022/11/21 03:48:59;;;;;;;29.50;15.05;;;-1.20;99.90;;;;;;5008214;28;20053;-62
2022/11/21 03:51:25;;;;;;;32.65;16.58;;;-1.00;99.90;;;;;;5008329;28;20034;-62
2022/11/21 03:53:51;;;;;;;26.85;13.65;;;-1.10;99.90;;;;;;5008598;28;20041;-62
2022/11/21 03:56:17;;;;;;;28.08;15.10;;;-1.10;99.90;;;;;;5005843;28;20048;-62
2022/11/21 03:58:43;;;;;;;32.17;15.82;;;-1.10;99.90;;;;;;5008845;28;20132;-63
2022/11/21 04:01:09;;;;;;;28.83;14.07;;;-1.20;99.90;;;;;;5008076;28;20155;-62
2022/11/21 04:03:34;;;;;;;34.67;16.13;;;-1.30;99.90;;;;;;5009121;28;20046;-62
2022/11/21 04:06:00;;;;;;;32.28;15.45;;;-1.30;99.90;;;;;;5005549;28;20088;-62
2022/11/21 04:08:26;;;;;;;26.48;14.60;;;-1.30;99.90;;;;;;5003554;28;20033;-62
2022/11/21 04:10:53;;;;;;;32.45;16.40;;;-1.40;99.90;;;;;;5001738;28;20505;-62
2022/11/21 04:13:19;;;;;;;30.60;16.90;;;-1.40;99.90;;;;;;5006965;28;20038;-62
2022/11/21 04:15:45;;;;;;;34.08;16.60;;;-1.40;99.90;;;;;;5006439;28;20038;-62
2022/11/21 04:18:11;;;;;;;36.08;16.73;;;-1.40;99.90;;;;;;5007152;28;20069;-62
2022/11/21 04:20:37;;;;;;;31.00;15.90;;;-1.40;99.90;;;;;;5021284;28;20036;-63
2022/11/21 04:23:03;;;;;;;33.45;17.20;;;-1.40;99.90;;;;;;5011074;28;20192;-62
2022/11/21 04:25:29;;;;;;;38.92;17.27;;;-1.50;99.90;;;;;;5006395;28;20037;-62
2022/11/21 04:27:59;;;;;;;31.60;16.00;;;-1.60;99.90;;;;;;5013041;28;20092;-63
2022/11/21 04:30:25;;;;;;;34.05;16.25;;;-1.70;99.90;;;;;;5006580;28;20481;-62
2022/11/21 04:32:51;;;;;;;28.73;14.52;;;-1.70;99.90;;;;;;4995266;28;20044;-63
2022/11/21 04:35:17;;;;;;;30.23;14.80;;;-1.80;99.90;;;;;;4999314;28;20041;-62
2022/11/21 04:37:42;;;;;;;30.33;15.55;;;-1.80;99.90;;;;;;4995590;28;20088;-62
2022/11/21 04:40:08;;;;;;;29.40;15.07;;;-1.80;99.90;;;;;;5010712;28;20496;-62
2022/11/21 04:42:34;;;;;;;30.27;14.45;;;-1.90;99.90;;;;;;5001306;28;20413;-63
2022/11/21 04:45:00;;;;;;;28.98;14.55;;;-2.00;99.90;;;;;;4997217;28;20073;-62
2022/11/21 04:47:25;;;;;;;29.20;13.85;;;-2.10;99.90;;;;;;5006720;28;20088;-62
2022/11/21 04:49:51;;;;;;;30.95;15.20;;;-2.10;99.90;;;;;;5010656;28;20046;-62
2022/11/21 04:52:16;;;;;;;36.42;17.83;;;-2.00;99.90;;;;;;5012422;28;20097;-62
2022/11/21 04:54:42;;;;;;;34.78;16.85;;;-1.90;99.90;;;;;;5008162;28;20155;-62
2022/11/21 04:57:08;;;;;;;36.38;16.75;;;-1.80;99.90;;;;;;5009320;28;20038;-63
2022/11/21 04:59:33;;;;;;;37.13;18.00;;;-1.90;99.90;;;;;;4994607;28;20060;-62
2022/11/21 05:01:59;;;;;;;36.33;17.20;;;-2.00;99.90;;;;;;4998938;28;20404;-62
2022/11/21 05:04:24;;;;;;;41.03;18.20;;;-2.00;99.90;;;;;;5008483;28;20120;-62
2022/11/21 05:06:50;;;;;;;36.63;17.70;;;-2.00;99.90;;;;;;5005532;28;20058;-61
2022/11/21 05:09:15;;;;;;;36.60;17.58;;;-2.10;99.90;;;;;;5005983;28;20050;-62
2022/11/21 05:14:25;;;;;;;39.20;16.48;;;-2.20;99.90;;;;;;5006168;28;20045;-61
2022/11/21 05:16:52;;;;;;;37.15;17.13;;;-2.20;99.90;;;;;;5000704;28;20385;-62
2022/11/21 05:19:18;;;;;;;33.97;16.42;;;-2.10;99.90;;;;;;5010916;28;20095;-61
2022/11/21 05:21:43;;;;;;;32.70;16.40;;;-2.10;99.90;;;;;;5010630;28;20470;-61
2022/11/21 05:24:09;;;;;;;37.33;17.35;;;-2.20;99.90;;;;;;5005571;28;20038;-62
2022/11/21 05:26:34;;;;;;;38.35;17.25;;;-2.20;99.90;;;;;;4982921;28;20042;-62
2022/11/21 05:29:00;;;;;;;33.50;16.48;;;-2.30;99.90;;;;;;5011341;28;20048;-62
2022/11/21 05:31:26;;;;;;;36.53;15.80;;;-2.30;99.90;;;;;;5002123;28;20656;-62
2022/11/21 05:33:51;;;;;;;32.40;15.43;;;-2.40;99.90;;;;;;5002205;28;20040;-61
2022/11/21 05:36:17;;;;;;;34.00;16.25;;;-2.50;99.90;;;;;;5009528;28;20038;-62
2022/11/21 05:38:42;;;;;;;35.08;15.55;;;-2.50;99.90;;;;;;5011074;28;20444;-62
2022/11/21 05:41:08;;;;;;;36.85;17.45;;;-2.30;99.90;;;;;;5012725;28;20065;-62
2022/11/21 05:43:45;;;;;;;40.20;17.67;;;-2.40;99.90;;;;;;4995663;28;20516;-62
2022/11/21 05:46:16;;;;;;;39.42;19.30;;;-2.30;99.90;;;;;;5013758;28;20661;-62
2022/11/21 05:48:42;;;;;;;39.78;18.27;;;-2.20;99.90;;;;;;4999489;28;20036;-62
2022/11/21 05:51:08;;;;;;;41.88;18.85;;;-2.30;99.90;;;;;;5007513;28;20050;-63
2022/11/21 05:53:34;;;;;;;41.17;18.30;;;-2.20;99.90;;;;;;5011048;28;20449;-62
2022/11/21 05:56:05;;;;;;;41.67;19.70;;;-2.20;99.90;;;;;;5004911;28;20050;-62
2022/11/21 05:58:31;;;;;;;46.03;19.83;;;-2.10;99.90;;;;;;5007138;28;20057;-62
2022/11/21 06:00:58;;;;;;;41.35;18.95;;;-2.20;99.90;;;;;;5006366;28;20458;-62
2022/11/21 06:03:29;;;;;;;41.50;20.65;;;-2.20;99.90;;;;;;5009100;28;20037;-62
2022/11/21 06:06:09;;;;;;;45.28;20.08;;;-2.10;99.90;;;;;;5003797;28;20033;-63
2022/11/21 06:08:43;;;;;;;47.33;22.27;;;-1.90;99.90;;;;;;5008201;28;20041;-62
2022/11/21 06:11:11;;;;;;;44.53;21.15;;;-1.90;99.90;;;;;;5011374;28;20084;-62
2022/11/21 06:13:37;;;;;;;54.83;21.27;;;-1.90;99.90;;;;;;5009686;28;20406;-61
2022/11/21 06:16:08;;;;;;;43.08;20.55;;;-1.90;99.90;;;;;;5002980;28;20042;-63
2022/11/21 06:18:36;;;;;;;47.03;21.10;;;-1.90;99.90;;;;;;5002585;28;20038;-61
2022/11/21 06:21:04;;;;;;;49.20;22.08;;;-1.90;99.90;;;;;;5008719;28;20462;-62
2022/11/21 06:23:30;;;;;;;48.45;22.02;;;-1.90;99.90;;;;;;4993705;28;20072;-62
2022/11/21 06:25:57;;;;;;;54.65;22.35;;;-1.90;99.90;;;;;;5019074;28;20402;-62
2022/11/21 06:28:23;;;;;;;51.35;21.75;;;-1.80;99.90;;;;;;5000551;28;20449;-62
2022/11/21 06:30:50;;;;;;;44.63;19.95;;;-1.80;99.90;;;;;;5009617;28;20129;-63
2022/11/21 06:33:17;;;;;;;44.75;19.45;;;-1.90;99.90;;;;;;5008635;28;20076;-62
2022/11/21 06:35:42;;;;;;;36.30;17.75;;;-1.80;99.90;;;;;;5009528;28;20048;-62
2022/11/21 06:38:08;;;;;;;38.90;18.52;;;-1.90;99.90;;;;;;5004315;28;20050;-62
2022/11/21 06:40:34;;;;;;;37.00;18.45;;;-2.00;99.90;;;;;;5000571;28;20470;-61
2022/11/21 06:43:00;;;;;;;37.20;18.73;;;-2.10;99.90;;;;;;5010786;28;20037;-62
2022/11/21 06:45:26;;;;;;;35.80;16.98;;;-2.10;99.90;;;;;;5006968;28;20053;-62
2022/11/21 06:47:51;;;;;;;36.25;17.23;;;-2.10;99.90;;;;;;5008142;28;20038;-62
2022/11/21 06:50:17;;;;;;;38.08;17.98;;;-2.20;99.90;;;;;;5007256;28;20056;-62
2022/11/21 06:52:42;;;;;;;32.20;16.77;;;-1.90;99.90;;;;;;5002133;28;20061;-62
2022/11/21 06:55:09;;;;;;;35.95;16.80;;;-2.10;99.90;;;;;;5004359;28;20042;-62
2022/11/21 06:57:35;;;;;;;38.55;18.10;;;-2.20;99.90;;;;;;5007313;28;20042;-62
2022/11/21 07:00:01;;;;;;;35.53;17.52;;;-2.30;99.90;;;;;;5004353;28;20052;-62
2022/11/21 07:02:26;;;;;;;35.55;17.25;;;-2.40;99.90;;;;;;5005946;28;20076;-62
2022/11/21 07:04:52;;;;;;;35.45;16.65;;;-2.40;99.90;;;;;;5008555;28;20103;-62
2022/11/21 07:07:18;;;;;;;35.50;16.63;;;-2.50;99.90;;;;;;5010779;28;20516;-62
2022/11/21 07:09:46;;;;;;;34.38;16.63;;;-2.50;99.90;;;;;;5005835;28;20053;-62
2022/11/21 07:14:55;;;;;;;37.13;18.05;;;-2.50;99.90;;;;;;5008589;28;20046;-62
2022/11/21 07:17:21;;;;;;;38.00;18.83;;;-2.60;99.90;;;;;;4996951;28;20482;-62
2022/11/21 07:19:46;;;;;;;36.92;17.52;;;-2.60;99.90;;;;;;5009831;28;20080;-62
2022/11/21 07:22:12;;;;;;;38.30;18.75;;;-2.60;99.90;;;;;;5006413;28;20034;-62
2022/11/21 07:24:37;;;;;;;43.03;18.25;;;-2.60;99.90;;;;;;5008440;28;20030;-62
2022/11/21 07:27:03;;;;;;;41.33;18.63;;;-2.50;99.90;;;;;;5010092;28;20535;-62
2022/11/21 07:29:28;;;;;;;39.28;18.40;;;-2.50;99.90;;;;;;5007841;28;20091;-63
2022/11/21 07:31:54;;;;;;;37.97;17.92;;;-2.40;99.90;;;;;;5006604;28;20049;-62
2022/11/21 07:34:19;;;;;;;43.65;18.80;;;-2.40;99.90;;;;;;5009241;28;20053;-62
2022/11/21 07:36:45;;;;;;;46.63;20.05;;;-2.40;99.90;;;;;;5006746;28;20053;-62
2022/11/21 07:39:11;;;;;;;41.58;19.13;;;-2.30;99.90;;;;;;5006962;28;20139;-62
2022/11/21 07:41:36;;;;;;;45.20;19.65;;;-2.30;99.90;;;;;;5006410;28;20410;-63
2022/11/21 07:44:02;;;;;;;40.05;20.27;;;-2.30;99.90;;;;;;5007918;28;20508;-62
2022/11/21 07:46:27;;;;;;;39.10;19.25;;;-2.30;99.90;;;;;;5008594;28;20046;-62
2022/11/21 07:48:53;;;;;;;41.85;19.88;;;-2.20;99.90;;;;;;5006374;28;20046;-62
2022/11/21 07:51:18;;;;;;;45.85;20.38;;;-2.20;99.90;;;;;;5015260;28;20057;-62
2022/11/21 07:53:44;;;;;;;39.38;17.65;;;-2.20;99.90;;;;;;5012310;28;20115;-62
2022/11/21 07:56:09;;;;;;;37.30;19.90;;;-2.10;99.90;;;;;;5007906;28;20115;-62
2022/11/21 07:58:35;;;;;;;45.03;19.67;;;-2.10;99.90;;;;;;5004030;28;20049;-62
2022/11/21 08:01:05;;;;;;;41.78;20.17;;;-2.00;99.90;;;;;;5010613;28;20509;-62
2022/11/21 08:03:32;;;;;;;46.90;21.75;;;-2.00;99.90;;;;;;5008585;28;20041;-62
2022/11/21 08:06:02;;;;;;;45.00;19.90;;;-1.90;99.90;;;;;;5009839;28;20053;-62
2022/11/21 08:08:28;;;;;;;;;;;-1.90;99.90;;;;;;5012483;28;20046;-62
2022/11/21 08:10:53;;;;;;;45.85;20.73;;;-1.80;99.90;;;;;;5013928;28;19924;-62
2022/11/21 08:13:19;;;;;;;44.33;20.90;;;-1.70;99.90;;;;;;5014393;28;20041;-62
2022/11/21 08:15:45;;;;;;;43.50;21.92;;;-1.70;99.90;;;;;;5013013;28;20099;-62
2022/11/21 08:18:13;;;;;;;42.10;21.08;;;-1.60;99.90;;;;;;5010842;28;20050;-62
2022/11/21 08:20:39;;;;;;;50.95;21.83;;;-1.50;99.90;;;;;;5013396;28;22091;-62
2022/11/21 08:23:05;;;;;;;44.10;20.65;;;-1.50;99.90;;;;;;5009524;28;20037;-62
2022/11/21 08:25:36;;;;;;;48.75;22.42;;;-1.40;99.90;;;;;;5015002;28;20473;-61
2022/11/21 08:28:02;;;;;;;44.65;21.05;;;-1.30;99.90;;;;;;5013000;28;20038;-62
2022/11/21 08:30:28;;;;;;;50.92;23.25;;;-1.20;99.90;;;;;;5014826;28;20034;-62
2022/11/21 08:32:54;;;;;;;47.60;22.30;;;-1.10;99.90;;;;;;5011779;28;20065;-62
2022/11/21 08:35:19;;;;;;;48.05;22.13;;;-1.10;99.90;;;;;;5011524;28;20069;-62
2022/11/21 08:37:45;;;;;;;48.40;21.85;;;-1.10;99.90;;;;;;5010758;28;20040;-62
2022/11/21 08:40:11;;;;;;;50.85;23.02;;;-0.90;99.90;;;;;;5006446;28;20037;-62
2022/11/21 08:42:36;;;;;;;50.65;21.52;;;-0.90;99.90;;;;;;5009914;28;20046;-62
2022/11/21 08:45:04;;;;;;;48.13;23.25;;;-0.90;99.90;;;;;;5012241;28;20160;-63
2022/11/21 08:47:32;;;;;;;50.47;22.42;;;-0.80;99.90;;;;;;5009759;28;20034;-62
2022/11/21 08:49:58;;;;;;;50.15;21.75;;;-0.70;99.90;;;;;;5013598;28;20046;-63
2022/11/21 08:52:23;;;;;;;48.75;23.17;;;-0.70;99.90;;;;;;5010829;28;20390;-62
2022/11/21 08:54:49;;;;;;;47.55;23.20;;;-0.70;99.90;;;;;;5013618;28;20485;-62
2022/11/21 08:57:14;;;;;;;44.47;22.10;;;-0.60;99.90;;;;;;5011440;28;20128;-62
2022/11/21 08:59:40;;;;;;;50.47;24.13;;;-0.40;99.90;;;;;;5012165;28;20054;-62
2022/11/21 09:02:09;;;;;;;46.63;22.25;;;-0.30;99.90;;;;;;5011660;28;20129;-62
2022/11/21 09:04:34;;;;;;;56.33;25.38;;;-0.10;99.90;;;;;;5007774;28;20118;-62
2022/11/21 09:07:00;;;;;;;53.67;24.35;;;0.10;99.90;;;;;;5012030;28;20041;-62
2022/11/21 09:09:26;;;;;;;47.50;22.25;;;0.30;99.90;;;;;;5012320;28;20061;-62
2022/11/21 09:11:53;;;;;;;45.15;21.80;;;0.40;99.90;;;;;;5011699;28;20056;-63
2022/11/21 09:19:47;;;;;;;43.10;20.63;;;0.50;99.90;;;;;;5009089;28;20050;-63
2022/11/21 09:22:12;;;;;;;51.05;22.98;;;0.60;99.90;;;;;;5006442;28;20469;-62
2022/11/21 09:24:38;;;;;;;44.70;22.38;;;0.60;99.90;;;;;;5003917;28;20463;-62
2022/11/21 09:27:03;;;;;;;46.70;22.42;;;0.60;99.90;;;;;;5005828;28;20559;-63
2022/11/21 09:29:29;;;;;;;45.78;22.48;;;0.60;99.90;;;;;;5008783;28;20496;-62
2022/11/21 09:31:54;;;;;;;42.35;21.33;;;0.60;99.90;;;;;;5012468;28;20160;-63
2022/11/21 09:34:20;;;;;;;46.72;21.42;;;0.60;99.90;;;;;;5007963;28;20081;-62
2022/11/21 09:36:45;;;;;;;43.08;20.98;;;0.70;99.90;;;;;;5006041;28;20461;-62
2022/11/21 09:39:11;;;;;;;47.15;21.52;;;0.70;99.90;;;;;;5007788;28;20046;-63
2022/11/21 09:41:55;;;;;;;46.00;22.50;;;0.70;99.90;;;;;;5012106;28;20049;-62
2022/11/21 09:44:30;;;;;;;46.63;21.92;;;0.70;99.90;;;;;;5009666;28;20069;-63
2022/11/21 09:47:06;;;;;;;48.90;22.52;;;0.70;99.90;;;;;;4998946;28;20054;-63
2022/11/21 09:49:42;;;;;;;44.72;22.58;;;0.70;99.90;;;;;;5005171;28;20466;-62
2022/11/21 09:52:09;;;;;;;44.20;21.98;;;0.80;99.90;;;;;;5011539;28;20535;-63
2022/11/21 09:54:40;;;;;;;45.88;22.40;;;0.70;99.90;;;;;;5009882;28;20042;-62
2022/11/21 09:57:09;;;;;;;43.85;22.42;;;0.80;99.90;;;;;;5010567;28;20410;-62
2022/11/21 09:59:37;;;;;;;42.17;21.88;;;0.80;99.90;;;;;;5006122;28;20046;-62
2022/11/21 10:02:14;;;;;;;44.05;21.00;;;0.90;99.90;;;;;;5008882;28;20042;-62
2022/11/21 10:04:40;;;;;;;44.25;21.38;;;1.00;99.90;;;;;;5007416;28;20038;-62
2022/11/21 10:07:13;;;;;;;46.03;21.70;;;1.00;99.90;;;;;;5008978;28;20123;-63
2022/11/21 10:10:07;;;;;;;45.53;21.83;;;1.00;99.90;;;;;;5004677;28;20551;-62
2022/11/21 10:13:05;;;;;;;41.72;21.15;;;1.10;99.90;;;;;;5003939;28;20042;-63
2022/11/21 10:15:40;;;;;;;41.85;21.20;;;1.10;99.90;;;;;;5011441;28;20432;-62
2022/11/21 10:18:39;;;;;;;39.28;20.10;;;1.10;99.90;;;;;;5007450;28;20056;-62
2022/11/21 10:21:17;;;;;;;47.28;21.23;;;1.20;99.90;;;;;;5011153;28;20081;-62
2022/11/21 10:24:29;;;;;;;40.08;19.65;;;1.20;99.90;;;;;;5010141;28;20038;-61
2022/11/21 10:27:11;;;;;;;40.60;18.70;;;1.30;99.90;;;;;;5008695;28;20041;-62
2022/11/21 10:30:16;;;;;;;44.78;21.30;;;1.30;99.90;;;;;;5007733;28;20165;-62
2022/11/21 10:32:46;;;;;;;42.42;20.80;;;1.30;99.90;;;;;;4979264;28;20080;-62
2022/11/21 10:35:21;;;;;;;39.58;19.15;;;1.40;99.90;;;;;;4988073;28;20046;-61
2022/11/21 10:37:50;;;;;;;42.38;21.05;;;1.40;99.90;;;;;;4991888;28;20536;-62
2022/11/21 10:40:37;;;;;;;35.55;18.40;;;1.50;99.90;;;;;;5010455;28;20046;-62
2022/11/21 10:46:04;;;;;;;39.47;20.42;;;1.50;99.90;;;;;;5011542;28;20044;-62
2022/11/21 10:48:29;;;;;;;37.72;20.38;;;1.60;99.90;;;;;;5004875;28;20038;-62
2022/11/21 10:50:58;;;;;;;42.60;20.48;;;1.50;99.90;;;;;;5008267;28;20072;-62
2022/11/21 10:56:18;;;;;;;49.60;21.45;;;1.70;99.90;;;;;;5011260;28;20129;-62
2022/11/21 10:58:46;;;;;;;48.28;22.50;;;1.70;99.90;;;;;;5009544;28;20124;-62
2022/11/21 11:01:19;;;;;;;42.97;21.00;;;1.80;99.90;;;;;;5010563;28;20039;-62
2022/11/21 11:03:45;;;;;;;43.28;21.27;;;1.80;99.90;;;;;;5006579;28;20042;-62
2022/11/21 11:06:10;;;;;;;38.72;20.65;;;1.90;99.90;;;;;;5008757;28;20033;-62
2022/11/21 11:08:52;;;;;;;43.10;20.60;;;1.90;99.90;;;;;;5010856;28;20505;-62
2022/11/21 11:11:24;;;;;;;43.22;21.30;;;2.00;99.90;;;;;;5003727;28;20053;-62
2022/11/21 11:13:59;;;;;;;42.03;21.98;;;2.00;99.90;;;;;;5007386;28;20042;-62
2022/11/21 11:16:27;;;;;;;43.17;21.00;;;2.10;99.90;;;;;;5005777;28;20045;-62
2022/11/21 11:19:07;;;;;;;45.72;21.13;;;2.20;99.90;;;;;;5007631;28;20049;-62
2022/11/21 11:21:39;;;;;;;;;;;2.30;99.90;;;;;;5001147;28;20064;-61
2022/11/21 11:24:28;;;;;;;42.30;20.15;;;2.40;99.90;;;;;;5005259;28;20408;-62
2022/11/21 11:27:01;;;;;;;44.42;20.98;;;2.50;99.90;;;;;;5010051;28;20091;-64
2022/11/21 11:29:29;;;;;;;42.97;20.33;;;2.50;99.90;;;;;;5007272;28;20160;-62
2022/11/21 11:31:57;;;;;;;42.33;20.58;;;2.50;99.90;;;;;;5006603;28;20689;-63
2022/11/21 11:34:26;;;;;;;41.92;20.35;;;2.50;99.90;;;;;;5009291;28;20053;-62
2022/11/21 11:37:03;;;;;;;43.08;21.10;;;2.60;99.90;;;;;;5008412;28;20042;-62
2022/11/21 11:39:47;;;;;;;38.95;18.27;;;2.60;99.90;;;;;;5008233;28;20049;-61
2022/11/21 11:48:38;;;;;;;39.25;19.25;;;2.70;99.90;;;;;;5006577;28;20042;-62
2022/11/21 11:51:19;;;;;;;39.65;19.63;;;2.70;99.90;;;;;;5006889;28;20049;-62
2022/11/21 11:53:49;;;;;;;38.42;20.25;;;2.70;99.90;;;;;;5007366;28;20500;-62
2022/11/21 11:56:27;;;;;;;39.33;19.77;;;2.70;99.90;;;;;;5005504;28;20061;-62
2022/11/21 11:58:56;;;;;;;36.92;18.75;;;2.70;99.90;;;;;;5006970;28;20338;-62
2022/11/21 12:01:43;;;;;;;37.92;18.10;;;2.80;99.90;;;;;;5006999;28;20034;-63
2022/11/21 12:04:15;;;;;;;36.65;18.50;;;2.80;99.90;;;;;;5020481;28;20042;-63
2022/11/21 12:06:52;;;;;;;35.63;16.77;;;2.80;99.90;;;;;;5009651;28;20030;-62
2022/11/21 12:09:28;;;;;;;37.33;17.80;;;2.80;99.90;;;;;;5007330;28;20217;-63
2022/11/21 12:12:08;;;;;;;33.60;16.98;;;2.70;99.90;;;;;;5009097;28;20044;-62
2022/11/21 12:18:19;;;;;;;31.80;15.50;;;2.70;99.90;;;;;;4989209;28;20104;-62
2022/11/21 12:21:03;;;;;;;35.20;15.25;;;2.70;99.90;;;;;;5007022;28;20401;-63
2022/11/21 12:23:35;;;;;;;26.77;14.05;;;2.80;99.90;;;;;;5009104;28;20463;-62
2022/11/21 12:26:28;;;;;;;27.98;14.02;;;2.80;99.90;;;;;;5010594;28;20036;-63
2022/11/21 12:29:21;;;;;;;29.40;14.48;;;2.80;99.90;;;;;;4998432;28;20052;-62
2022/11/21 12:32:07;;;;;;;30.13;14.52;;;2.80;99.90;;;;;;4991977;28;20606;-62
2022/11/21 12:34:56;;;;;;;29.80;14.10;;;2.90;99.90;;;;;;5010686;28;20113;-63
2022/11/21 12:37:27;;;;;;;27.70;12.98;;;2.90;99.90;;;;;;5011776;28;20100;-62
2022/11/21 12:40:30;;;;;;;26.25;12.73;;;2.90;99.90;;;;;;5013471;28;20045;-63
2022/11/21 12:43:23;;;;;;;28.50;14.10;;;2.90;99.90;;;;;;5008663;28;20041;-64
2022/11/21 12:46:09;;;;;;;25.58;12.60;;;2.90;99.90;;;;;;5005504;28;20073;-62
2022/11/21 12:54:56;;;;;;;24.80;13.00;;;2.90;99.90;;;;;;5010088;28;20049;-62
2022/11/21 12:57:47;;;;;;;23.55;13.32;;;3.00;99.90;;;;;;5019338;28;20046;-62
2022/11/21 13:00:50;;;;;;;26.27;12.95;;;3.00;99.90;;;;;;5003891;28;20048;-62
2022/11/21 13:03:42;;;;;;;29.33;13.70;;;3.00;99.90;;;;;;5012459;28;20734;-61
2022/11/21 13:06:15;;;;;;;23.90;12.70;;;3.00;99.90;;;;;;5011283;28;20104;-62
2022/11/21 13:08:42;;;;;;;27.25;13.32;;;3.00;99.90;;;;;;5010648;28;20527;-62
2022/11/21 13:14:31;;;;;;;26.38;12.65;;;3.00;99.90;;;;;;5009705;28;20042;-62
2022/11/21 13:17:09;;;;;;;24.17;13.32;;;3.10;99.90;;;;;;5011057;28;20078;-62
2022/11/21 13:19:59;;;;;;;24.27;12.77;;;3.10;99.90;;;;;;5006183;28;20041;-63
2022/11/21 13:22:49;;;;;;;24.58;11.55;;;3.10;99.90;;;;;;5011661;28;20367;-62